Campestre, Brazil
Current Conditions -  °F | °C
As of 4:00 PM on Friday 24 Oct 2014 (Local Time) from SBYS Reporting Station
Broken Clouds Broken Clouds  
Wind Chill: 93°   Ceiling: 4000
Heat Index: 93°   Visibility: 6mi
Dew Point: 57°   Wind: 5mph
Humidity: 30%   Direction: 270°W
Pressure: 29.88"   Gusts: NA
Location:  21.71°S, 46.25°W
Report Text: SBYS 241800Z 27004KT 9999 BKN040 FEW045TCU 34/14 Q1012
Loading
Personal Weather Stations






























Interactive Weather Map
Tropical Storm Tracking
New forecast layout! Learn more

10-Day Weather Forecast

Advertisements
Track Severe Weather on mobile